Time;durP1;ratioP1;P1;durP2;ratioP2;P2;SDS_P1;SDS_P2;PMS_P1;PMS_P2;Temp;Humidity;BMP_temperature;BMP_pressure;BME280_temperature;BME280_humidity;BME280_pressure;Samples;Min_cycle;Max_cycle;Signal;HPM_P1;HPM_P2
2022/03/20 00:02:24;;;;;;;;;;;;;;;5.12;100.00;103472.19;4972205;28;19934;-69
2022/03/20 00:04:49;;;;;;;;;;;;;;;5.13;100.00;103462.56;4971733;28;19925;-69
2022/03/20 00:07:15;;;;;;;;;;;;;;;5.14;100.00;103461.72;4962221;28;19919;-69
2022/03/20 00:09:41;;;;;;;;;;;;;;;5.21;100.00;103455.69;4955990;28;20291;-70
2022/03/20 00:12:07;;;;;;;;;;;;;;;5.20;100.00;103454.81;4965408;28;19918;-69
2022/03/20 00:14:32;;;;;;;;;;;;;;;5.18;100.00;103459.16;4964489;28;20021;-69
2022/03/20 00:16:57;;;;;;;;;;;;;;;5.16;100.00;103450.34;4959186;28;19997;-69
2022/03/20 00:19:22;;;;;;;;;;;;;;;5.14;100.00;103451.19;4972510;28;19922;-69
2022/03/20 00:21:48;;;;;;;;;;;;;;;5.08;100.00;103449.28;4961856;28;20409;-69
2022/03/20 00:24:13;;;;;;;;;;;;;;;5.12;100.00;103451.13;4955647;28;20009;-69
2022/03/20 00:26:39;;;;;;;;;;;;;;;5.13;100.00;103442.38;4969599;28;19925;-68
2022/03/20 00:29:06;;;;;;;;;;;;;;;5.11;100.00;103443.19;4963846;28;20284;-69
2022/03/20 00:31:33;;;;;;;;;;;;;;;5.08;100.00;103441.38;4958224;28;20082;-69
2022/03/20 00:33:58;;;;;;;;;;;;;;;5.06;100.00;103444.84;4965202;28;19918;-69
2022/03/20 00:36:23;;;;;;;;;;;;;;;4.95;100.00;103435.84;4966132;28;19918;-69
2022/03/20 00:38:49;;;;;;;;;;;;;;;4.94;100.00;103429.66;4961133;28;19953;-68
2022/03/20 00:41:14;;;;;;;;;;;;;;;4.92;100.00;103426.09;4956857;28;20001;-69
2022/03/20 00:43:39;;;;;;;;;;;;;;;4.86;100.00;103425.97;4973862;28;19981;-69
2022/03/20 00:46:04;;;;;;;;;;;;;;;4.94;100.00;103429.66;4971182;28;19918;-69
2022/03/20 00:48:29;;;;;;;;;;;;;;;4.82;100.00;103420.63;4961608;28;19961;-69
2022/03/20 00:50:55;;;;;;;;;;;;;;;4.89;100.00;103415.50;4963999;28;20009;-69
2022/03/20 00:53:20;;;;;;;;;;;;;;;4.75;100.00;103416.97;4965005;28;19918;-69
2022/03/20 00:55:45;;;;;;;;;;;;;;;4.88;100.00;103421.66;4967372;28;19942;-69
2022/03/20 00:58:12;;;;;;;;;;;;;;;4.82;100.00;103416.25;4963907;28;19918;-69
2022/03/20 01:00:37;;;;;;;;;;;;;;;4.81;100.00;103409.19;4962528;28;19973;-69
2022/03/20 01:03:02;;;;;;;;;;;;;;;4.78;100.00;103413.50;4963640;28;19922;-68
2022/03/20 01:05:27;;;;;;;;;;;;;;;4.77;100.00;103410.00;4969923;28;19956;-69
2022/03/20 01:07:53;;;;;;;;;;;;;;;4.77;100.00;103402.09;4969522;28;20307;-69
2022/03/20 01:10:18;;;;;;;;;;;;;;;4.74;100.00;103400.25;4962856;28;19925;-69
2022/03/20 01:12:43;;;;;;;;;;;;;;;4.69;100.00;103393.16;4965353;28;19933;-69
2022/03/20 01:15:10;;;;;;;;;;;;;;;4.67;100.00;103386.94;4966753;28;19918;-69
2022/03/20 01:17:35;;;;;;;;;;;;;;;4.72;100.00;103386.22;4970900;28;19925;-69
2022/03/20 01:20:01;;;;;;;;;;;;;;;4.72;100.00;103380.03;4971763;28;20386;-69
2022/03/20 01:22:26;;;;;;;;;;;;;;;4.71;100.00;103378.28;4970702;28;19918;-69
2022/03/20 01:24:51;;;;;;;;;;;;;;;4.61;100.00;103373.66;4971110;28;20347;-69
2022/03/20 01:27:17;;;;;;;;;;;;;;;4.63;100.00;103367.56;4969100;28;19919;-69
2022/03/20 01:29:42;;;;;;;;;;;;;;;4.63;100.00;103371.97;4967700;28;19961;-69
2022/03/20 01:32:08;;;;;;;;;;;;;;;4.60;100.00;103370.13;4967185;28;19953;-69
2022/03/20 01:34:34;;;;;;;;;;;;;;;4.58;100.00;103365.69;4963689;28;19965;-69
2022/03/20 01:36:59;;;;;;;;;;;;;;;4.50;100.00;103355.00;4969344;28;19922;-69
2022/03/20 01:39:24;;;;;;;;;;;;;;;4.46;100.00;103354.88;4959473;28;20395;-71
2022/03/20 01:41:50;;;;;;;;;;;;;;;4.44;100.00;103357.47;4959176;28;19918;-69
2022/03/20 01:44:15;;;;;;;;;;;;;;;4.39;100.00;103355.63;4973300;28;19918;-68
2022/03/20 01:46:40;;;;;;;;;;;;;;;4.32;100.00;103351.97;4972354;28;20257;-69
2022/03/20 01:49:06;;;;;;;;;;;;;;;4.37;100.00;103352.06;4964006;28;20426;-69
2022/03/20 01:54:05;;;;;;;;;;;;;;;4.26;100.00;103354.44;5003727;28;19948;-70
2022/03/20 01:56:33;;;;;;;;;;;;;;;4.26;100.00;103341.31;5000677;28;19985;-70
2022/03/20 01:59:03;;;;;;;;;;;;;;;4.29;100.00;103340.47;5002609;28;20322;-70
2022/03/20 02:01:28;;;;;;;;;;;;;;;4.32;100.00;103345.78;5019870;28;19918;-70
2022/03/20 02:03:54;;;;;;;;;;;;;;;4.32;100.00;103330.00;5013968;28;19918;-70
2022/03/20 02:06:19;;;;;;;;;;;;;;;4.25;100.00;103341.28;5012853;28;19918;-70
2022/03/20 02:08:44;;;;;;;;;;;;;;;4.23;100.00;103333.34;5001443;28;20367;-70
2022/03/20 02:11:09;;;;;;;;;;;;;;;4.18;100.00;103336.72;5013848;28;19928;-70
2022/03/20 02:13:35;;;;;;;;;;;;;;;4.24;100.00;103326.31;4998036;28;19925;-70
2022/03/20 02:16:00;;;;;;;;;;;;;;;4.20;100.00;103320.13;4993224;28;20275;-70
2022/03/20 02:18:25;;;;;;;;;;;;;;;4.18;100.00;103320.91;4994788;28;19922;-69
2022/03/20 02:20:51;;;;;;;;;;;;;;;4.21;100.00;103313.09;4992968;28;19918;-70
2022/03/20 02:23:17;;;;;;;;;;;;;;;4.19;100.00;103315.69;5012382;28;19928;-70
2022/03/20 02:25:50;;;;;;;;;;;;;;;4.16;100.00;103323.53;5013700;28;20346;-70
2022/03/20 02:28:15;;;;;;;;;;;;;;;4.19;100.00;103317.47;5012519;28;19918;-70
2022/03/20 02:30:41;;;;;;;;;;;;;;;4.18;100.00;103298.16;5013960;28;19933;-70
2022/03/20 02:33:06;;;;;;;;;;;;;;;4.10;100.00;103309.34;5013866;28;19987;-70
2022/03/20 02:35:33;;;;;;;;;;;;;;;4.07;100.00;103290.88;5013855;28;20016;-69
2022/03/20 02:37:58;;;;;;;;;;;;;;;4.10;100.00;103285.66;5014447;28;19967;-70
2022/03/20 02:40:23;;;;;;;;;;;;;;;4.04;100.00;103280.28;5013831;28;20397;-69
2022/03/20 02:42:50;;;;;;;;;;;;;;;4.09;100.00;103281.28;5014116;28;19921;-69
2022/03/20 02:45:23;;;;;;;;;;;;;;;4.00;100.00;103271.44;5012412;28;19921;-70
2022/03/20 02:47:49;;;;;;;;;;;;;;;3.98;100.00;103267.00;5012563;28;19922;-69
2022/03/20 02:50:15;;;;;;;;;;;;;;;3.93;100.00;103272.16;5006237;28;20298;-69
2022/03/20 02:52:43;;;;;;;;;;;;;;;3.98;100.00;103261.75;4993642;28;19948;-69
2022/03/20 02:55:09;;;;;;;;;;;;;;;3.90;100.00;103268.56;4993931;28;19929;-68
2022/03/20 02:57:34;;;;;;;;;;;;;;;3.87;100.00;103260.63;4994029;28;19918;-69
2022/03/20 03:00:03;;;;;;;;;;;;;;;3.88;100.00;103257.13;4993917;28;19949;-69
2022/03/20 03:02:30;;;;;;;;;;;;;;;3.83;100.00;103250.91;4996534;28;19918;-69
2022/03/20 03:04:58;;;;;;;;;;;;;;;3.85;100.00;103257.06;4996198;28;19924;-69
2022/03/20 03:07:24;;;;;;;;;;;;;;;3.89;100.00;103248.41;4997596;28;19922;-69
2022/03/20 03:12:33;;;;;;;;;;;;;;;3.80;100.00;103248.19;4997697;28;19940;-69
2022/03/20 03:17:41;;;;;;;;;;;;;;;3.74;100.00;103258.53;4997261;28;19925;-69
2022/03/20 03:20:07;;;;;;;;;;;;;;;3.80;100.00;103242.94;4997141;28;19918;-69
2022/03/20 03:22:32;;;;;;;;;;;;;;;3.83;100.00;103248.25;4995778;28;19918;-69
2022/03/20 03:24:57;;;;;;;;;;;;;;;3.73;100.00;103252.41;4995972;28;20351;-69
2022/03/20 03:27:23;;;;;;;;;;;;;;;3.67;100.00;103246.13;4997686;28;19918;-69
2022/03/20 03:29:48;;;;;;;;;;;;;;;3.68;100.00;103242.63;4997086;28;20323;-69
2022/03/20 03:32:13;;;;;;;;;;;;;;;3.66;100.00;103236.44;4997147;28;20029;-70
2022/03/20 03:37:22;;;;;;;;;;;;;;;3.57;100.00;103233.59;4997714;28;19940;-69
2022/03/20 03:39:48;;;;;;;;;;;;;;;3.53;100.00;103234.41;4997039;28;19917;-70
2022/03/20 03:42:14;;;;;;;;;;;;;;;3.52;100.00;103216.84;4996600;28;19941;-70
2022/03/20 03:44:39;;;;;;;;;;;;;;;3.49;100.00;103215.03;4996610;28;19918;-70
2022/03/20 03:47:04;;;;;;;;;;;;;;;3.43;100.00;103216.63;4995561;28;19924;-69
2022/03/20 03:49:30;;;;;;;;;;;;;;;3.37;100.00;103206.88;4975935;28;20291;-70
2022/03/20 03:51:55;;;;;;;;;;;;;;;3.40;100.00;103200.81;4977504;28;19972;-70
2022/03/20 03:54:22;;;;;;;;;;;;;;;3.36;100.00;103197.22;4976561;28;20279;-70
2022/03/20 03:56:47;;;;;;;;;;;;;;;3.34;100.00;103200.66;4977090;28;19929;-70
2022/03/20 03:59:12;;;;;;;;;;;;;;;3.28;100.00;103204.00;4977073;28;19918;-70
2022/03/20 04:01:38;;;;;;;;;;;;;;;3.29;100.00;103195.31;4977282;28;19925;-69
2022/03/20 04:04:03;;;;;;;;;;;;;;;3.29;100.00;103189.16;4975620;28;19941;-70
2022/03/20 04:06:28;;;;;;;;;;;;;;;3.23;100.00;103182.00;4975548;28;20441;-70
2022/03/20 04:08:54;;;;;;;;;;;;;;;3.24;100.00;103172.38;4977018;28;20322;-70
2022/03/20 04:11:20;;;;;;;;;;;;;;;3.26;100.00;103170.69;4976950;28;20391;-70
2022/03/20 04:13:45;;;;;;;;;;;;;;;3.20;100.00;103173.19;4975858;28;20330;-70
2022/03/20 04:16:10;;;;;;;;;;;;;;;3.23;100.00;103165.38;4977406;28;19926;-69
2022/03/20 04:18:35;;;;;;;;;;;;;;;3.17;100.00;103159.13;4977155;28;19918;-70
2022/03/20 04:21:00;;;;;;;;;;;;;;;3.10;100.00;103161.56;4976622;28;19918;-70
2022/03/20 04:26:10;;;;;;;;;;;;;;;3.08;100.00;103164.16;4976583;28;20328;-70
2022/03/20 04:28:36;;;;;;;;;;;;;;;3.05;100.00;103156.22;4976946;28;19918;-69
2022/03/20 04:31:01;;;;;;;;;;;;;;;3.09;100.00;103154.50;4976583;28;19918;-70
2022/03/20 04:33:27;;;;;;;;;;;;;;;3.13;100.00;103152.03;4974999;28;19925;-70
2022/03/20 04:35:52;;;;;;;;;;;;;;;3.09;100.00;103150.16;4977495;28;19918;-70
2022/03/20 04:38:21;;;;;;;;;;;;;;;3.11;100.00;103158.97;4976566;28;19933;-70
2022/03/20 04:40:46;;;;;;;;;;;;;;;3.06;100.00;103150.09;4975542;28;20371;-70
2022/03/20 04:43:11;;;;;;;;;;;;;;;3.10;100.00;103145.81;4976380;28;19924;-70
2022/03/20 04:45:36;;;;;;;;;;;;;;;3.05;100.00;103139.56;4974773;28;20334;-70
2022/03/20 04:58:58;;;;;;;;;;;;;;;2.90;100.00;103126.94;4976007;28;19932;-70
2022/03/20 05:01:23;;;;;;;;;;;;;;;2.88;100.00;103118.13;4975993;28;20427;-70
2022/03/20 05:03:48;;;;;;;;;;;;;;;2.86;100.00;103125.09;4976092;28;19925;-70
2022/03/20 05:06:13;;;;;;;;;;;;;;;2.87;100.00;103124.25;4974274;28;20363;-70
2022/03/20 05:08:40;;;;;;;;;;;;;;;2.86;100.00;103116.31;4976091;28;20099;-70
2022/03/20 05:13:49;;;;;;;;;;;;;;;2.84;100.00;103108.41;4975855;28;19924;-70
2022/03/20 05:16:14;;;;;;;;;;;;;;;2.87;100.00;103105.88;4975632;28;19918;-70
2022/03/20 05:18:39;;;;;;;;;;;;;;;2.80;100.00;103088.22;4982533;28;19922;-69
2022/03/20 05:21:04;;;;;;;;;;;;;;;2.81;100.00;103089.09;4995222;28;19925;-69
2022/03/20 05:23:30;;;;;;;;;;;;;;;2.63;100.00;103078.16;4994824;28;19940;-69
2022/03/20 05:25:55;;;;;;;;;;;;;;;2.64;100.00;103077.28;4995062;28;19925;-71
2022/03/20 05:28:21;;;;;;;;;;;;;;;2.70;100.00;103074.81;4995725;28;19925;-68
2022/03/20 05:30:46;;;;;;;;;;;;;;;2.71;100.00;103071.34;4996132;28;19968;-69
2022/03/20 05:33:12;;;;;;;;;;;;;;;2.69;100.00;103060.84;4995223;28;19921;-72
2022/03/20 05:35:40;;;;;;;;;;;;;;;2.55;100.00;103059.56;4996102;28;20017;-70
2022/03/20 05:38:09;;;;;;;;;;;;;;;2.61;100.00;103053.59;4996583;28;19922;-69
2022/03/20 05:40:34;;;;;;;;;;;;;;;2.52;100.00;103056.88;4994721;28;19980;-68
2022/03/20 05:43:00;;;;;;;;;;;;;;;2.53;100.00;103066.53;4984429;28;19922;-69
2022/03/20 05:45:25;;;;;;;;;;;;;;;2.52;100.00;103063.88;4976688;28;19922;-69
2022/03/20 05:47:50;;;;;;;;;;;;;;;2.52;100.00;103066.50;4975777;28;20000;-68
2022/03/20 05:50:16;;;;;;;;;;;;;;;2.49;100.00;103059.41;4974858;28;19925;-69
2022/03/20 05:52:41;;;;;;;;;;;;;;;2.56;100.00;103061.38;4974664;28;20280;-69
2022/03/20 05:55:07;;;;;;;;;;;;;;;2.54;100.00;103057.81;4975226;28;19918;-69
2022/03/20 06:00:23;;;;;;;;;;;;;;;2.68;100.00;103037.16;4976291;28;19946;-69
2022/03/20 06:02:49;;;;;;;;;;;;;;;2.72;100.00;103039.00;4989740;28;20121;-69
2022/03/20 06:05:14;;;;;;;;;;;;;;;2.78;100.00;103029.56;4975140;28;20252;-68
2022/03/20 06:07:43;;;;;;;;;;;;;;;2.80;100.00;103035.75;4975366;28;19922;-68
2022/03/20 06:10:12;;;;;;;;;;;;;;;2.88;100.00;103033.28;4994271;28;20004;-68
2022/03/20 06:12:38;;;;;;;;;;;;;;;3.06;100.00;103028.44;4994338;28;19918;-69
2022/03/20 06:15:04;;;;;;;;;;;;;;;3.08;100.00;103032.00;4994572;28;20363;-72
2022/03/20 06:17:29;;;;;;;;;;;;;;;3.17;100.00;103027.84;4994557;28;20354;-69
2022/03/20 06:19:54;;;;;;;;;;;;;;;3.33;100.00;103029.06;4994580;28;19925;-67
2022/03/20 06:22:20;;;;;;;;;;;;;;;3.41;100.00;103040.63;4994172;28;19929;-69
2022/03/20 06:24:45;;;;;;;;;;;;;;;3.46;100.00;103035.44;4995960;28;20371;-70
2022/03/20 06:27:10;;;;;;;;;;;;;;;3.52;100.00;103023.34;4994630;28;19925;-69
2022/03/20 06:29:35;;;;;;;;;;;;;;;3.54;100.00;103026.00;4994683;28;19918;-68
2022/03/20 06:32:00;;;;;;;;;;;;;;;3.59;100.00;103030.50;4994029;28;19918;-69
2022/03/20 06:34:26;;;;;;;;;;;;;;;3.73;100.00;103030.78;4994179;28;19918;-69
2022/03/20 06:36:55;;;;;;;;;;;;;;;3.75;100.00;103021.19;4994685;28;19918;-69
2022/03/20 06:39:21;;;;;;;;;;;;;;;3.75;100.00;103014.16;4998347;28;19918;-69
2022/03/20 06:41:46;;;;;;;;;;;;;;;3.92;100.00;103001.38;4998502;28;19922;-70
2022/03/20 06:44:15;;;;;;;;;;;;;;;4.01;100.00;102999.78;4982378;28;19918;-69
2022/03/20 06:46:40;;;;;;;;;;;;;;;4.10;100.00;102994.69;4979076;28;19926;-70
2022/03/20 06:49:07;;;;;;;;;;;;;;;4.23;100.00;102990.53;4992803;28;20291;-67
2022/03/20 06:51:32;;;;;;;;;;;;;;;4.40;100.00;102989.97;4995128;28;19922;-68
2022/03/20 06:53:57;;;;;;;;;;;;;;;4.44;100.00;102988.28;4998336;28;19922;-69
2022/03/20 06:56:23;;;;;;;;;;;;;;;4.49;100.00;102991.88;4998395;28;19917;-70
2022/03/20 06:58:48;;;;;;;;;;;;;;;4.54;100.00;102982.28;4997809;28;19918;-69
2022/03/20 07:01:13;;;;;;;;;;;;;;;4.49;100.00;102976.94;4997484;28;20376;-70
2022/03/20 07:03:39;;;;;;;;;;;;;;;4.41;100.00;102972.44;4998713;28;19960;-69
2022/03/20 07:06:04;;;;;;;;;;;;;;;4.28;100.00;102980.97;4997555;28;19925;-70
2022/03/20 07:08:29;;;;;;;;;;;;;;;4.33;100.00;102974.91;4996278;28;20390;-69
2022/03/20 07:10:54;;;;;;;;;;;;;;;4.14;100.00;102978.13;4997279;28;19920;-70
2022/03/20 07:16:03;;;;;;;;;;;;;;;4.26;100.00;102972.16;4997402;28;19980;-69
2022/03/20 07:18:29;;;;;;;;;;;;;;;4.42;100.00;102968.94;4992742;28;19922;-70
2022/03/20 07:20:55;;;;;;;;;;;;;;;4.32;100.00;102957.38;4992243;28;20034;-69
2022/03/20 07:23:20;;;;;;;;;;;;;;;4.38;100.00;102956.59;4982969;28;20445;-69
2022/03/20 07:31:13;;;;;;;;;;;;;;;4.52;100.00;102944.56;4977077;28;20024;-70
2022/03/20 07:33:39;;;;;;;;;;;;;;;4.47;100.00;102933.06;4992431;28;19949;-69
2022/03/20 07:36:05;;;;;;;;;;;;;;;4.49;100.00;102934.84;4992175;28;20375;-69
2022/03/20 07:38:30;;;;;;;;;;;;;;;4.54;100.00;102934.91;4985326;28;19918;-69
2022/03/20 07:40:55;;;;;;;;;;;;;;;4.67;100.00;102931.59;4976412;28;19953;-69
2022/03/20 07:43:20;;;;;;;;;;;;;;;4.62;100.00;102928.03;4977272;28;19918;-69
2022/03/20 07:45:46;;;;;;;;;;;;;;;4.51;100.00;102916.44;4977603;28;19918;-70
2022/03/20 07:48:12;;;;;;;;;;;;;;;4.47;100.00;102912.91;4982401;28;20470;-69
2022/03/20 07:50:38;;;;;;;;;;;;;;;4.56;100.00;102907.78;4995006;28;20359;-70
2022/03/20 07:53:04;;;;;;;;;;;;;;;4.69;100.00;102909.72;4985669;28;19928;-69
2022/03/20 07:55:29;;;;;;;;;;;;;;;4.95;100.00;102910.06;4996370;28;19922;-69
2022/03/20 07:57:55;;;;;;;;;;;;;;;5.21;100.00;102898.13;4995088;28;20437;-69
2022/03/20 08:00:21;;;;;;;;;;;;;;;5.22;100.00;102884.06;4995338;28;20017;-70
2022/03/20 08:02:47;;;;;;;;;;;;;;;5.41;100.00;102887.78;4988257;28;20024;-69
2022/03/20 08:05:12;;;;;;;;;;;;;;;5.65;100.00;102888.94;4985400;28;20045;-70
2022/03/20 08:07:38;;;;;;;;;;;;;;;5.64;100.00;102886.31;4992187;28;20445;-69
2022/03/20 08:10:07;;;;;;;;;;;;;;;6.08;100.00;102882.34;4985602;28;19922;-69
2022/03/20 08:12:33;;;;;;;;;;;;;;;5.86;100.00;102877.75;4981572;28;19925;-71
2022/03/20 08:14:58;;;;;;;;;;;;;;;5.98;100.00;102877.84;4997324;28;19918;-69
2022/03/20 08:17:24;;;;;;;;;;;;;;;6.01;100.00;102886.69;4985278;28;19918;-69
2022/03/20 08:19:49;;;;;;;;;;;;;;;6.28;100.00;102886.00;4989491;28;20331;-71
2022/03/20 08:22:14;;;;;;;;;;;;;;;6.03;100.00;102877.03;4985960;28;19976;-69
2022/03/20 08:24:41;;;;;;;;;;;;;;;6.03;100.00;102868.22;4984472;28;19929;-71
2022/03/20 08:27:06;;;;;;;;;;;;;;;6.03;100.00;102870.88;4987462;28;19961;-71
2022/03/20 08:29:32;;;;;;;;;;;;;;;6.22;100.00;102878.91;4994004;28;20268;-70
2022/03/20 08:31:57;;;;;;;;;;;;;;;5.98;100.00;102862.91;4995468;28;19922;-70
2022/03/20 08:34:23;;;;;;;;;;;;;;;5.98;100.00;102860.28;4997417;28;19921;-70
2022/03/20 08:36:48;;;;;;;;;;;;;;;6.11;100.00;102871.81;5005265;28;19918;-73
2022/03/20 08:39:13;;;;;;;;;;;;;;;5.92;100.00;102875.16;4999159;28;19929;-74
2022/03/20 08:41:39;;;;;;;;;;;;;;;5.96;100.00;102871.66;5002066;28;19925;-71
2022/03/20 08:44:05;;;;;;;;;;;;;;;6.05;100.00;102864.72;5009668;28;20017;-72
2022/03/20 08:46:30;;;;;;;;;;;;;;;6.07;100.00;102854.19;4990000;28;20380;-69
2022/03/20 08:48:55;;;;;;;;;;;;;;;6.30;100.00;102838.53;4981259;28;19918;-68
2022/03/20 08:51:21;;;;;;;;;;;;;;;6.42;100.00;102857.06;4976379;28;19918;-70
2022/03/20 08:53:48;;;;;;;;;;;;;;;6.08;100.00;102842.78;4975624;28;19922;-68
2022/03/20 08:56:14;;;;;;;;;;;;;;;6.40;100.00;102850.91;4976204;28;19918;-68
2022/03/20 08:58:40;;;;;;;;;;;;;;;6.31;100.00;102838.53;4976210;28;19969;-69
2022/03/20 09:01:06;;;;;;;;;;;;;;;5.96;100.00;102838.28;4975475;28;19922;-69
2022/03/20 09:03:32;;;;;;;;;;;;;;;6.09;100.00;102829.59;4990554;28;19918;-69
2022/03/20 09:05:57;;;;;;;;;;;;;;;6.05;100.00;102834.84;4975931;28;19918;-70
2022/03/20 09:08:22;;;;;;;;;;;;;;;6.01;100.00;102833.94;4975945;28;19922;-69
2022/03/20 09:10:51;;;;;;;;;;;;;;;5.90;100.00;102838.25;4976292;28;20029;-70
2022/03/20 09:13:16;;;;;;;;;;;;;;;6.18;100.00;102834.94;4975905;28;19918;-69
2022/03/20 09:15:42;;;;;;;;;;;;;;;6.23;100.00;102841.13;4974778;28;19941;-69
2022/03/20 09:20:50;;;;;;;;;;;;;;;6.48;100.00;102830.69;4976255;28;19985;-68
2022/03/20 09:23:16;;;;;;;;;;;;;;;6.39;100.00;102833.28;4975922;28;19918;-69
2022/03/20 09:25:41;;;;;;;;;;;;;;;6.39;100.00;102825.38;4975424;28;19918;-68
2022/03/20 09:28:08;;;;;;;;;;;;;;;6.60;100.00;102830.78;4990934;28;19918;-70
2022/03/20 09:30:33;;;;;;;;;;;;;;;6.75;100.00;102829.09;4974475;28;19958;-69
2022/03/20 09:33:01;;;;;;;;;;;;;;;6.67;100.00;102830.81;4974094;28;19965;-69
2022/03/20 09:35:26;;;;;;;;;;;;;;;7.16;100.00;102834.53;4975509;28;19918;-69
2022/03/20 09:37:52;;;;;;;;;;;;;;;7.40;100.00;102834.59;4975227;28;20017;-70
2022/03/20 09:40:22;;;;;;;;;;;;;;;7.11;100.00;102836.25;4975462;28;19922;-70
2022/03/20 09:42:47;;;;;;;;;;;;;;;6.89;100.00;102835.31;4976211;28;19918;-70
2022/03/20 09:45:15;;;;;;;;;;;;;;;6.95;100.00;102835.34;4973686;28;20256;-68
2022/03/20 09:47:41;;;;;;;;;;;;;;;7.20;100.00;102836.31;4975147;28;20362;-70
2022/03/20 09:50:07;;;;;;;;;;;;;;;7.04;100.00;102845.97;4975444;28;19965;-69
2022/03/20 09:52:33;;;;;;;;;;;;;;;7.06;100.00;102832.75;4975102;28;19922;-69
2022/03/20 09:54:59;;;;;;;;;;;;;;;7.00;100.00;102838.88;4974941;28;19925;-69
2022/03/20 09:57:31;;;;;;;;;;;;;;;6.84;100.00;102842.34;4975012;28;19919;-69
2022/03/20 10:00:04;;;;;;;;;;;;;;;6.70;100.00;102853.69;4973961;28;19925;-69
2022/03/20 10:02:30;;;;;;;;;;;;;;;6.83;100.00;102842.31;4974154;28;19923;-69
2022/03/20 10:04:55;;;;;;;;;;;;;;;6.86;100.00;102842.34;4975506;28;19946;-69
2022/03/20 10:07:25;;;;;;;;;;;;;;;6.69;100.00;102841.38;4990051;28;19918;-71
2022/03/20 10:10:13;;;;;;;;;;;;;;;6.88;100.00;102833.56;4975190;28;19933;-69
2022/03/20 10:12:44;;;;;;;;;;;;;;;7.07;100.00;102829.22;4973954;28;19929;-69
2022/03/20 10:15:10;;;;;;;;;;;;;;;6.85;100.00;102812.44;4978439;28;19926;-70
2022/03/20 10:17:35;;;;;;;;;;;;;;;6.65;100.00;102811.44;4978795;28;19925;-70
2022/03/20 10:20:21;;;;;;;;;;;;;;;6.59;100.00;102806.13;4977545;28;19918;-70
2022/03/20 10:22:46;;;;;;;;;;;;;;;6.75;100.00;102799.16;4993448;28;20372;-69
2022/03/20 10:25:12;;;;;;;;;;;;;;;7.27;100.00;102785.22;4979272;28;19924;-69
2022/03/20 10:27:40;;;;;;;;;;;;;;;7.72;100.00;102790.56;4977622;28;19918;-69
2022/03/20 10:30:08;;;;;;;;;;;;;;;8.05;100.00;102779.06;4977392;28;19926;-69
2022/03/20 10:32:33;;;;;;;;;;;;;;;8.67;100.00;102778.03;4993646;28;19922;-69
2022/03/20 10:34:59;;;;;;;;;;;;;;;8.70;100.00;102770.06;4978676;28;19946;-69
2022/03/20 10:37:44;;;;;;;;;;;;;;;9.51;100.00;102749.25;4977176;28;20304;-69
2022/03/20 10:40:10;;;;;;;;;;;;;;;10.23;100.00;102738.84;4979033;28;19922;-69
2022/03/20 10:42:35;;;;;;;;;;;;;;;10.44;100.00;102746.56;4979249;28;19918;-70
2022/03/20 10:45:05;;;;;;;;;;;;;;;10.95;100.00;102758.31;4978753;28;20394;-68
2022/03/20 10:47:30;;;;;;;;;;;;;;;10.83;100.00;102761.13;4978186;28;19925;-68
2022/03/20 10:50:03;;;;;;;;;;;;;;;10.01;100.00;102753.19;4978164;28;19944;-68
2022/03/20 10:52:32;;;;;;;;;;;;;;;10.02;100.00;102762.06;4976935;28;19931;-70
2022/03/20 10:54:58;;;;;;;;;;;;;;;9.62;100.00;102768.59;4977552;28;19918;-68
2022/03/20 10:57:31;;;;;;;;;;;;;;;9.71;100.00;102758.78;4978289;28;19926;-68
2022/03/20 10:59:58;;;;;;;;;;;;;;;10.02;100.00;102757.59;4978570;28;20384;-68
2022/03/20 11:02:24;;;;;;;;;;;;;;;9.69;100.00;102760.56;4978212;28;19918;-69
2022/03/20 11:04:49;;;;;;;;;;;;;;;9.43;100.00;102756.38;4978011;28;20296;-70
2022/03/20 11:07:18;;;;;;;;;;;;;;;9.52;100.00;102762.47;4977836;28;19934;-68
2022/03/20 11:09:44;;;;;;;;;;;;;;;9.47;100.00;102763.44;4978150;28;20016;-70
2022/03/20 11:12:13;;;;;;;;;;;;;;;9.10;100.00;102768.09;4978121;28;19922;-69
2022/03/20 11:14:38;;;;;;;;;;;;;;;8.80;100.00;102763.84;4978035;28;20012;-69
2022/03/20 11:17:05;;;;;;;;;;;;;;;8.74;100.00;102763.88;4978227;28;20368;-69
2022/03/20 11:19:31;;;;;;;;;;;;;;;8.82;100.00;102767.38;4993450;28;19918;-70
2022/03/20 11:22:06;;;;;;;;;;;;;;;9.08;100.00;102762.81;4997305;28;19964;-69
2022/03/20 11:24:33;;;;;;;;;;;;;;;9.32;100.00;102760.00;4997687;28;19921;-69
2022/03/20 11:27:01;;;;;;;;;;;;;;;10.17;100.00;102743.31;4995704;28;19925;-69
2022/03/20 11:29:28;;;;;;;;;;;;;;;10.50;100.00;102750.91;4997795;28;19929;-69
2022/03/20 11:31:54;;;;;;;;;;;;;;;10.97;100.00;102753.84;4999209;28;19925;-69
2022/03/20 11:34:19;;;;;;;;;;;;;;;11.30;100.00;102760.47;4997890;28;20005;-70
2022/03/20 11:37:04;;;;;;;;;;;;;;;11.44;100.00;102756.66;4996886;28;20366;-68
2022/03/20 11:39:29;;;;;;;;;;;;;;;11.65;100.00;102759.03;4996711;28;19944;-68
2022/03/20 11:42:13;;;;;;;;;;;;;;;11.49;100.00;102754.81;4995876;28;20375;-69
2022/03/20 11:44:49;;;;;;;;;;;;;;;13.43;100.00;102758.03;4996875;28;19972;-70
2022/03/20 11:47:14;;;;;;;;;;;;;;;13.54;100.00;102764.88;4996558;28;19957;-70
2022/03/20 11:49:40;;;;;;;;;;;;;;;11.74;100.00;102768.66;4996610;28;19925;-68
2022/03/20 11:52:07;;;;;;;;;;;;;;;12.05;100.00;102753.88;4996694;28;20260;-70
2022/03/20 11:54:50;;;;;;;;;;;;;;;13.01;100.00;102756.38;4997195;28;20363;-70
2022/03/20 11:57:28;;;;;;;;;;;;;;;13.26;100.00;102761.13;4996875;28;20279;-70
2022/03/20 12:00:13;;;;;;;;;;;;;;;14.57;100.00;102768.38;4995266;28;19937;-70
2022/03/20 12:02:50;;;;;;;;;;;;;;;14.09;100.00;102775.00;4996963;28;19983;-69
2022/03/20 12:05:27;;;;;;;;;;;;;;;12.04;100.00;102763.66;4995153;28;19922;-69
2022/03/20 12:07:58;;;;;;;;;;;;;;;12.57;100.00;102741.28;4996829;28;19953;-70
2022/03/20 12:10:28;;;;;;;;;;;;;;;13.66;100.00;102756.53;4996213;28;20359;-70
2022/03/20 12:12:54;;;;;;;;;;;;;;;14.56;100.00;102763.91;4996782;28;19917;-69
2022/03/20 12:15:23;;;;;;;;;;;;;;;15.57;100.00;102765.31;4994814;28;19922;-70
2022/03/20 12:17:57;;;;;;;;;;;;;;;15.55;100.00;102761.78;4996865;28;19925;-69
2022/03/20 12:20:41;;;;;;;;;;;;;;;15.07;100.00;102756.16;4996081;28;19922;-71
2022/03/20 12:23:25;;;;;;;;;;;;;;;13.56;100.00;102751.47;4996239;28;19918;-70
2022/03/20 12:25:50;;;;;;;;;;;;;;;12.02;100.00;102744.13;4995996;28;19922;-72
2022/03/20 12:28:27;;;;;;;;;;;;;;;12.45;100.00;102733.53;4978636;28;19928;-70
2022/03/20 12:30:52;;;;;;;;;;;;;;;12.38;100.00;102720.38;4995474;28;19917;-70
2022/03/20 12:33:21;;;;;;;;;;;;;;;13.57;100.00;102718.53;4995929;28;19925;-69
2022/03/20 12:35:47;;;;;;;;;;;;;;;13.92;100.00;102717.59;4995109;28;20376;-69
2022/03/20 12:38:33;;;;;;;;;;;;;;;13.24;100.00;102722.91;4995899;28;19968;-69
2022/03/20 12:41:05;;;;;;;;;;;;;;;13.50;100.00;102712.44;4994190;28;19929;-69
2022/03/20 12:43:30;;;;;;;;;;;;;;;15.45;100.00;102706.75;4994711;28;20417;-69
2022/03/20 12:45:57;;;;;;;;;;;;;;;14.87;100.00;102703.28;4996329;28;19918;-69
2022/03/20 12:48:22;;;;;;;;;;;;;;;13.72;100.00;102699.44;4995975;28;19941;-69
2022/03/20 12:50:59;;;;;;;;;;;;;;;13.85;100.00;102696.41;4995869;28;19918;-69
2022/03/20 12:53:35;;;;;;;;;;;;;;;13.64;100.00;102696.09;4995271;28;19929;-69
2022/03/20 12:56:01;;;;;;;;;;;;;;;13.12;100.00;102700.97;4995624;28;20509;-70
2022/03/20 12:58:27;;;;;;;;;;;;;;;13.81;100.00;102699.19;4994473;28;19949;-69
2022/03/20 13:00:53;;;;;;;;;;;;;;;13.99;100.00;102696.06;4995317;28;20366;-69
2022/03/20 13:03:19;;;;;;;;;;;;;;;13.00;100.00;102695.91;4995398;28;19918;-70
2022/03/20 13:05:47;;;;;;;;;;;;;;;13.14;100.00;102694.66;4995229;28;20024;-70
2022/03/20 13:08:31;;;;;;;;;;;;;;;12.99;100.00;102683.47;4995665;28;19918;-70
2022/03/20 13:10:58;;;;;;;;;;;;;;;11.78;100.00;102685.16;4995934;28;19922;-70
2022/03/20 13:13:34;;;;;;;;;;;;;;;12.01;100.00;102678.47;4995311;28;19925;-70
2022/03/20 13:15:59;;;;;;;;;;;;;;;12.54;100.00;102671.16;4994989;28;20009;-70